createdAt,value
2022-10-11T00:04:59.256Z,12.75
2022-10-11T00:10:01.962Z,12.45
2022-10-11T00:15:05.781Z,12.23
2022-10-11T00:20:09.661Z,12.05
2022-10-11T00:25:13.355Z,13.31
2022-10-11T00:30:16.117Z,15.84
2022-10-11T00:35:18.807Z,14.50
2022-10-11T00:40:22.041Z,13.46
2022-10-11T00:45:27.893Z,12.87
2022-10-11T00:50:34.276Z,12.46
2022-10-11T00:55:48.348Z,12.13
2022-10-11T01:00:52.049Z,13.41
2022-10-11T01:05:55.874Z,16.48
2022-10-11T01:10:59.212Z,16.25
2022-10-11T01:16:33.741Z,14.44
2022-10-11T01:21:52.551Z,13.35
2022-10-11T01:27:29.324Z,12.74
2022-10-11T01:32:59.328Z,12.26
2022-10-11T01:38:11.396Z,13.60
2022-10-11T01:43:16.433Z,16.60
2022-10-11T01:48:19.426Z,16.28
2022-10-11T01:53:46.484Z,14.45
2022-10-11T01:58:58.333Z,13.39
2022-10-11T02:04:39.629Z,12.75
2022-10-11T02:09:52.547Z,12.23
2022-10-11T02:14:56.736Z,13.38
2022-10-11T02:20:03.890Z,16.46
2022-10-11T02:25:13.237Z,15.83
2022-10-11T02:30:16.909Z,14.19
2022-10-11T02:35:24.370Z,13.29
2022-10-11T02:40:31.080Z,12.63
2022-10-11T02:45:42.193Z,12.12
2022-10-11T02:50:45.112Z,13.16
2022-10-11T02:55:49.641Z,16.18
2022-10-11T03:00:52.526Z,16.03
2022-10-11T03:06:03.866Z,14.11
2022-10-11T03:11:07.045Z,12.97
2022-10-11T03:16:10.163Z,12.24
2022-10-11T03:21:13.559Z,13.08
2022-10-11T03:26:16.201Z,16.01
2022-10-11T03:31:18.949Z,16.30
2022-10-11T03:36:21.963Z,14.34
2022-10-11T03:41:24.663Z,13.09
2022-10-11T03:46:27.269Z,12.42
2022-10-11T03:51:30.370Z,14.48
2022-10-11T03:56:33.065Z,16.88
2022-10-11T04:01:38.209Z,15.54
2022-10-11T04:06:40.906Z,13.83
2022-10-11T04:11:43.621Z,13.06
2022-10-11T04:16:46.249Z,15.21
2022-10-11T04:21:49.326Z,14.43
2022-10-11T04:26:52.127Z,13.06
2022-10-11T04:31:54.823Z,14.43
2022-10-11T04:36:57.524Z,16.85
2022-10-11T04:42:00.225Z,16.90
2022-10-11T04:47:03.012Z,14.77
2022-10-11T04:52:06.047Z,13.45
2022-10-11T04:57:08.709Z,14.00
2022-10-11T05:02:11.389Z,15.56
2022-10-11T05:07:14.333Z,13.93
2022-10-11T05:12:17.029Z,15.38
2022-10-11T05:17:19.684Z,16.82
2022-10-11T05:22:22.303Z,14.83
2022-10-11T05:27:25.542Z,14.20
2022-10-11T05:32:28.329Z,15.57
2022-10-11T05:37:31.420Z,13.96
2022-10-11T05:42:34.270Z,14.21
2022-10-11T05:47:37.205Z,16.38
2022-10-11T05:52:39.880Z,14.91
2022-10-11T05:57:43.013Z,14.46
2022-10-11T06:02:45.665Z,16.38
2022-10-11T06:07:48.864Z,14.77
2022-10-11T06:12:51.841Z,13.48
2022-10-11T06:17:54.611Z,15.04
2022-10-11T06:22:58.929Z,17.00
2022-10-11T06:28:01.750Z,15.41
2022-10-11T06:33:05.077Z,13.86
2022-10-11T06:38:08.030Z,14.41
2022-10-11T06:43:10.825Z,15.97
2022-10-11T06:48:13.758Z,14.56
2022-10-11T06:53:16.455Z,15.99
2022-10-11T06:58:19.274Z,16.87
2022-10-11T07:03:22.231Z,14.98
2022-10-11T07:08:25.037Z,14.87
2022-10-11T07:13:28.247Z,17.01
2022-10-11T07:18:32.310Z,15.80
2022-10-11T07:23:35.387Z,15.17
2022-10-11T07:28:39.857Z,16.75
2022-10-11T07:33:42.951Z,15.50
2022-10-11T07:38:46.983Z,15.75
2022-10-11T07:43:52.237Z,17.21
2022-10-11T07:48:55.261Z,15.73
2022-10-11T07:53:59.771Z,16.45
2022-10-11T07:59:05.119Z,17.88
2022-10-11T08:04:07.945Z,16.41
2022-10-11T08:09:10.662Z,15.48
2022-10-11T08:14:13.398Z,16.27
2022-10-11T08:19:18.620Z,17.14
2022-10-11T08:24:21.416Z,15.76
2022-10-11T08:29:24.164Z,14.93
2022-10-11T08:34:26.993Z,16.08
2022-10-11T08:39:30.097Z,17.27
2022-10-11T08:44:58.275Z,16.11
2022-10-11T08:50:00.188Z,15.48
2022-10-11T08:55:12.529Z,15.28
2022-10-11T09:00:18.845Z,15.17
2022-10-11T09:05:25.654Z,16.52
2022-10-11T09:10:31.139Z,18.49
2022-10-11T09:15:43.875Z,17.10
2022-10-11T09:21:16.971Z,16.25
2022-10-11T09:26:29.845Z,15.71
2022-10-11T09:31:32.989Z,15.51
2022-10-11T09:36:54.383Z,15.48
2022-10-11T09:42:01.763Z,15.51
2022-10-11T09:47:06.224Z,15.60
2022-10-11T09:52:16.576Z,15.86
2022-10-11T09:57:36.534Z,16.05
2022-10-11T10:02:48.814Z,16.18
2022-10-11T10:08:09.839Z,16.24
2022-10-11T10:13:23.407Z,16.15
2022-10-11T10:18:32.202Z,16.43
2022-10-11T10:23:36.805Z,16.76
2022-10-11T10:28:53.763Z,16.78
2022-10-11T10:33:57.955Z,17.22
2022-10-11T10:39:36.359Z,17.78
2022-10-11T10:44:39.093Z,17.77
2022-10-11T10:50:01.260Z,18.67
2022-10-11T10:55:24.266Z,18.64
2022-10-11T11:00:36.300Z,18.66
2022-10-11T11:05:54.055Z,20.14
2022-10-11T11:11:34.491Z,20.64
2022-10-11T11:17:06.043Z,20.12
2022-10-11T11:22:32.497Z,20.67
2022-10-11T11:27:47.547Z,21.65
2022-10-11T11:33:10.482Z,22.78
2022-10-11T11:38:29.433Z,21.62
2022-10-11T11:44:00.952Z,20.21
2022-10-11T11:49:13.152Z,19.98
2022-10-11T11:54:44.911Z,19.68
2022-10-11T11:59:50.063Z,21.35
2022-10-11T12:04:53.336Z,23.78
2022-10-11T12:10:19.172Z,25.86
2022-10-11T12:15:26.217Z,27.54
2022-10-11T12:20:37.959Z,29.02
2022-10-11T12:25:42.467Z,29.79
2022-10-11T12:30:47.939Z,29.35
2022-10-11T12:35:53.441Z,28.38
2022-10-11T12:41:13.367Z,26.83
2022-10-11T12:46:28.130Z,24.51
2022-10-11T12:51:50.640Z,22.67
2022-10-11T12:57:12.188Z,21.15
2022-10-11T13:02:35.073Z,20.07
2022-10-11T13:07:41.443Z,19.08
2022-10-11T13:12:47.804Z,18.26
2022-10-11T13:17:52.908Z,17.68
2022-10-11T13:22:56.723Z,17.23
2022-10-11T13:27:59.655Z,16.75
2022-10-11T13:33:06.615Z,16.37
2022-10-11T13:38:18.338Z,16.37
2022-10-11T13:43:24.955Z,16.43
2022-10-11T13:48:31.676Z,16.38
2022-10-11T13:53:35.664Z,16.24
2022-10-11T13:58:47.723Z,16.05
2022-10-11T14:03:58.972Z,16.00
2022-10-11T14:09:01.974Z,15.99
2022-10-11T14:14:28.187Z,15.90
2022-10-11T14:19:30.722Z,15.79
2022-10-11T14:24:33.370Z,15.65
2022-10-11T14:29:39.601Z,15.61
2022-10-11T14:34:47.721Z,15.59
2022-10-11T14:39:50.943Z,15.59
2022-10-11T14:44:53.648Z,15.45
2022-10-11T14:49:56.532Z,15.30
2022-10-11T14:54:59.233Z,15.09
2022-10-11T15:00:02.592Z,15.00
2022-10-11T15:05:06.266Z,15.05
2022-10-11T15:10:20.432Z,14.82
2022-10-11T15:15:25.654Z,14.54
2022-10-11T15:20:33.350Z,14.32
2022-10-11T15:25:37.823Z,14.16
2022-10-11T15:30:41.898Z,14.01
2022-10-11T15:35:44.885Z,13.87
2022-10-11T15:40:49.257Z,13.76
2022-10-11T15:45:52.290Z,13.65
2022-10-11T15:50:55.462Z,13.55
2022-10-11T15:56:02.079Z,13.45
2022-10-11T16:01:09.346Z,13.36
2022-10-11T16:06:13.347Z,13.30
2022-10-11T16:11:16.189Z,13.23
2022-10-11T16:16:18.949Z,13.16
2022-10-11T16:21:23.598Z,13.11
2022-10-11T16:26:26.310Z,13.05
2022-10-11T16:31:29.005Z,13.01
2022-10-11T16:36:32.065Z,12.97
2022-10-11T16:41:35.121Z,12.91
2022-10-11T16:46:37.921Z,12.83
2022-10-11T16:51:40.811Z,12.74
2022-10-11T16:56:43.849Z,12.66
2022-10-11T17:01:46.562Z,12.58
2022-10-11T17:06:49.849Z,12.53
2022-10-11T17:11:52.751Z,12.49
2022-10-11T17:16:55.362Z,12.45
2022-10-11T17:21:58.142Z,12.41
2022-10-11T17:27:00.716Z,12.36
2022-10-11T17:32:03.931Z,12.29
2022-10-11T17:37:08.966Z,12.22
2022-10-11T17:42:11.806Z,12.16
2022-10-11T17:47:15.130Z,12.08
2022-10-11T17:52:17.754Z,12.00
2022-10-11T17:57:20.513Z,11.92
2022-10-11T18:02:23.129Z,11.82
2022-10-11T18:07:25.808Z,13.02
2022-10-11T18:12:28.475Z,16.36
2022-10-11T18:17:31.216Z,16.89
2022-10-11T18:22:34.073Z,15.02
2022-10-11T18:27:36.762Z,13.89
2022-10-11T18:32:39.608Z,13.18
2022-10-11T18:37:42.512Z,12.68
2022-10-11T18:42:45.136Z,12.30
2022-10-11T18:47:51.306Z,11.99
2022-10-11T18:52:54.070Z,11.71
2022-10-11T18:57:57.811Z,12.88
2022-10-11T19:03:00.444Z,16.37
2022-10-11T19:08:03.087Z,16.47
2022-10-11T19:13:05.799Z,14.46
2022-10-11T19:18:09.258Z,13.24
2022-10-11T19:23:11.920Z,12.38
2022-10-11T19:28:15.816Z,11.72
2022-10-11T19:33:18.711Z,11.25
2022-10-11T19:43:29.162Z,15.67
2022-10-11T19:48:32.991Z,16.04
2022-10-11T19:53:36.314Z,14.03
2022-10-11T19:58:39.804Z,12.86
2022-10-11T20:03:44.033Z,12.09
2022-10-11T20:08:59.819Z,11.51
2022-10-11T20:14:08.789Z,11.00
2022-10-11T20:19:11.467Z,12.08
2022-10-11T20:24:14.200Z,15.52
2022-10-11T20:29:16.903Z,14.97
2022-10-11T20:34:19.496Z,13.21
2022-10-11T20:39:22.179Z,12.25
2022-10-11T20:44:24.918Z,11.62
2022-10-11T20:49:27.999Z,11.08
2022-10-11T20:54:30.905Z,10.67
2022-10-11T20:59:33.528Z,10.36
2022-10-11T21:04:36.306Z,10.14
2022-10-11T21:09:39.001Z,11.52
2022-10-11T21:14:42.312Z,15.09
2022-10-11T21:19:44.946Z,15.00
2022-10-11T21:24:47.531Z,13.08
2022-10-11T21:29:51.222Z,12.04
2022-10-11T21:34:53.826Z,11.32
2022-10-11T21:39:56.523Z,10.75
2022-10-11T21:44:59.155Z,10.32
2022-10-11T21:50:01.923Z,10.05
2022-10-11T21:55:05.210Z,11.40
2022-10-11T22:00:08.927Z,15.03
2022-10-11T22:05:11.598Z,14.71
2022-10-11T22:10:14.865Z,12.95
2022-10-11T22:15:17.563Z,12.02
2022-10-11T22:20:20.262Z,11.40
2022-10-11T22:25:23.070Z,10.92
2022-10-11T22:30:25.728Z,10.56
2022-10-11T22:35:29.672Z,11.83
2022-10-11T22:40:34.129Z,15.25
2022-10-11T22:45:36.742Z,15.33
2022-10-11T22:50:39.833Z,13.35
2022-10-11T22:55:42.735Z,12.21
2022-10-11T23:00:45.382Z,11.44
2022-10-11T23:05:58.298Z,10.89
2022-10-11T23:11:08.038Z,10.49
2022-10-11T23:16:12.441Z,11.71
2022-10-11T23:21:15.125Z,15.23
2022-10-11T23:26:17.754Z,15.09
2022-10-11T23:31:20.879Z,13.17
2022-10-11T23:36:25.525Z,12.13
2022-10-11T23:41:29.781Z,11.44
2022-10-11T23:46:32.417Z,10.91
2022-10-11T23:51:35.153Z,10.48
2022-10-11T23:56:38.243Z,11.70
